createdAt,value
2023-06-02T05:01:43.713Z,100506.69
2023-06-02T05:04:10.922Z,100510.91
2023-06-02T05:06:38.078Z,100512.59
2023-06-02T05:09:05.521Z,100508.03
2023-06-02T05:11:33.858Z,100514.13
2023-06-02T05:14:03.498Z,100508.53
2023-06-02T05:16:32.034Z,100510.00
2023-06-02T05:19:00.588Z,100507.09
2023-06-02T05:21:30.216Z,100511.28
2023-06-02T05:24:00.096Z,100522.44
2023-06-02T05:26:27.841Z,100508.09
2023-06-02T05:28:56.414Z,100515.88
2023-06-02T05:31:23.604Z,100511.53
2023-06-02T05:33:51.715Z,100518.41
2023-06-02T05:36:18.361Z,100520.78
2023-06-02T05:38:46.160Z,100519.69
2023-06-02T05:41:14.113Z,100520.34
2023-06-02T05:43:41.599Z,100509.50
2023-06-02T05:46:08.582Z,100517.28
2023-06-02T05:48:36.000Z,100517.03
2023-06-02T05:51:02.868Z,100510.97
2023-06-02T05:53:30.651Z,100516.19
2023-06-02T05:55:58.457Z,100517.63
2023-06-02T05:58:26.730Z,100516.63
2023-06-02T06:00:53.622Z,100517.19
2023-06-02T06:03:22.060Z,100517.19
2023-06-02T06:05:48.970Z,100521.69
2023-06-02T06:08:16.492Z,100527.84
2023-06-02T06:10:43.802Z,100527.66
2023-06-02T06:13:15.469Z,100524.06
2023-06-02T06:15:42.232Z,100519.56
2023-06-02T06:18:09.563Z,100521.28
2023-06-02T06:20:36.363Z,100524.72
2023-06-02T06:23:03.898Z,100524.47
2023-06-02T06:25:33.006Z,100526.00
2023-06-02T06:28:00.388Z,100528.44
2023-06-02T06:30:29.398Z,100527.25
2023-06-02T06:33:01.376Z,100521.63
2023-06-02T06:35:30.956Z,100531.16
2023-06-02T06:38:02.892Z,100529.09
2023-06-02T06:40:31.057Z,100536.91
2023-06-02T06:43:02.939Z,100534.94
2023-06-02T06:45:41.633Z,100532.00
2023-06-02T06:48:09.467Z,100530.94
2023-06-02T06:50:36.288Z,100536.84
2023-06-02T06:53:04.774Z,100535.53
2023-06-02T06:55:31.995Z,100540.59
2023-06-02T06:57:58.713Z,100541.13
2023-06-02T07:00:25.976Z,100539.88
2023-06-02T07:02:53.072Z,100546.63
2023-06-02T07:05:21.194Z,100551.16
2023-06-02T07:07:48.215Z,100550.94
2023-06-02T07:10:15.810Z,100545.16
2023-06-02T07:12:42.466Z,100550.00
2023-06-02T07:15:09.990Z,100551.81
2023-06-02T07:17:36.769Z,100551.50
2023-06-02T07:20:04.262Z,100553.88
2023-06-02T07:22:30.988Z,100549.59
2023-06-02T07:24:58.840Z,100548.66
2023-06-02T07:27:25.497Z,100554.88
2023-06-02T07:29:52.656Z,100551.41
2023-06-02T07:32:20.033Z,100557.75
2023-06-02T07:34:46.833Z,100566.19
2023-06-02T07:37:13.398Z,100568.16
2023-06-02T07:39:40.524Z,100561.59
2023-06-02T07:42:07.628Z,100565.63
2023-06-02T07:44:34.935Z,100557.03
2023-06-02T07:47:03.086Z,100557.50
2023-06-02T07:49:32.017Z,100555.53
2023-06-02T07:51:58.629Z,100556.28
2023-06-02T07:54:25.978Z,100557.84
2023-06-02T07:56:52.677Z,100555.81
2023-06-02T07:59:20.141Z,100568.53
2023-06-02T08:01:47.328Z,100567.53
2023-06-02T08:04:14.478Z,100567.53
2023-06-02T08:06:42.706Z,100565.34
2023-06-02T08:09:11.027Z,100568.53
2023-06-02T08:11:37.736Z,100568.09
2023-06-02T08:14:04.974Z,100566.84
2023-06-02T08:16:38.582Z,100571.09
2023-06-02T08:19:09.588Z,100569.94
2023-06-02T08:21:37.879Z,100570.59
2023-06-02T08:24:05.489Z,100567.59
2023-06-02T08:26:32.193Z,100571.63
2023-06-02T08:28:59.955Z,100573.03
2023-06-02T08:31:27.482Z,100574.31
2023-06-02T08:33:54.849Z,100574.16
2023-06-02T08:36:21.745Z,100574.91
2023-06-02T08:38:53.205Z,100578.88
2023-06-02T08:41:20.935Z,100577.84
2023-06-02T08:43:48.571Z,100583.28
2023-06-02T08:46:16.847Z,100573.19
2023-06-02T08:48:46.849Z,100580.94
2023-06-02T08:51:17.137Z,100579.97
2023-06-02T08:53:44.945Z,100578.22
2023-06-02T08:56:11.560Z,100577.06
2023-06-02T08:58:38.897Z,100586.81
2023-06-02T09:01:05.565Z,100586.59
2023-06-02T09:03:45.474Z,100590.53
2023-06-02T09:06:24.986Z,100592.91
2023-06-02T09:09:00.208Z,100587.84
2023-06-02T09:11:31.686Z,100593.22
2023-06-02T09:13:59.705Z,100586.72
2023-06-02T09:16:42.034Z,100587.56
2023-06-02T09:19:09.521Z,100584.63
2023-06-02T09:21:38.934Z,100581.53
2023-06-02T09:26:36.662Z,100585.78
2023-06-02T09:29:15.264Z,100583.81
2023-06-02T09:31:56.736Z,100579.16
2023-06-02T09:34:24.504Z,100583.13
2023-06-02T09:36:53.904Z,100585.28
2023-06-02T09:39:39.683Z,100588.97
2023-06-02T09:42:07.961Z,100594.75
2023-06-02T09:44:34.953Z,100596.94
2023-06-02T09:47:03.918Z,100600.41
2023-06-02T09:49:43.325Z,100600.22
2023-06-02T09:52:15.423Z,100590.28
2023-06-02T09:54:49.773Z,100596.44
2023-06-02T09:57:17.922Z,100593.31
2023-06-02T09:59:46.120Z,100591.06
2023-06-02T10:02:14.623Z,100586.56
2023-06-02T10:04:41.359Z,100596.91
2023-06-02T10:07:18.414Z,100596.28
2023-06-02T10:10:16.202Z,100594.38
2023-06-02T10:13:35.531Z,100600.25
2023-06-02T10:16:36.284Z,100602.94
2023-06-02T10:19:33.183Z,100606.25
2023-06-02T10:22:17.432Z,100593.66
2023-06-02T10:25:18.348Z,100590.06
2023-06-02T10:27:48.999Z,100592.81
2023-06-02T10:30:22.010Z,100581.31
2023-06-02T10:32:50.151Z,100576.84
2023-06-02T10:35:18.635Z,100580.50
2023-06-02T10:38:33.384Z,100581.28
2023-06-02T10:41:02.103Z,100589.84
2023-06-02T10:43:28.925Z,100574.53
2023-06-02T10:46:17.187Z,100578.75
2023-06-02T10:48:43.918Z,100579.22
2023-06-02T10:51:12.304Z,100575.31
2023-06-02T10:54:03.186Z,100574.81
2023-06-02T10:56:37.553Z,100577.22
2023-06-02T10:59:04.524Z,100574.44
2023-06-02T11:01:49.183Z,100579.19
2023-06-02T11:04:28.938Z,100568.78
2023-06-02T11:07:28.040Z,100575.19
2023-06-02T11:09:54.696Z,100575.88
2023-06-02T11:12:22.373Z,100573.59
2023-06-02T11:15:02.776Z,100573.44
2023-06-02T11:17:31.821Z,100571.31
2023-06-02T11:19:59.014Z,100570.56
2023-06-02T11:22:28.703Z,100567.34
2023-06-02T11:24:56.778Z,100556.28
2023-06-02T11:27:43.940Z,100558.88
2023-06-02T11:30:14.651Z,100561.88
2023-06-02T11:32:42.535Z,100570.09
2023-06-02T11:35:12.100Z,100569.13
2023-06-02T11:37:41.798Z,100568.44
2023-06-02T11:40:12.258Z,100572.56
2023-06-02T11:42:44.709Z,100576.56
2023-06-02T11:45:23.855Z,100565.22
2023-06-02T11:48:06.788Z,100565.53
2023-06-02T11:50:34.981Z,100559.94
2023-06-02T11:53:01.667Z,100559.56
2023-06-02T11:55:31.703Z,100552.94
2023-06-02T11:58:28.705Z,100568.38
2023-06-02T12:01:09.636Z,100555.22
2023-06-02T12:03:38.287Z,100553.94
2023-06-02T12:06:15.840Z,100552.97
2023-06-02T12:08:43.883Z,100555.22
2023-06-02T12:11:22.282Z,100561.91
2023-06-02T12:14:01.985Z,100558.25
2023-06-02T12:16:28.790Z,100556.09
2023-06-02T12:19:12.624Z,100552.06
2023-06-02T12:21:41.041Z,100557.38
2023-06-02T12:24:09.082Z,100553.03
2023-06-02T12:26:43.500Z,100554.44
2023-06-02T12:29:11.750Z,100542.00
2023-06-02T12:31:39.470Z,100549.28
2023-06-02T12:34:08.166Z,100551.94
2023-06-02T12:36:39.520Z,100536.91
2023-06-02T12:39:06.198Z,100541.03
2023-06-02T12:41:33.820Z,100533.88
2023-06-02T12:44:00.818Z,100547.03
2023-06-02T12:46:28.192Z,100535.72
2023-06-02T12:48:55.899Z,100536.06
2023-06-02T12:51:22.935Z,100539.16
2023-06-02T12:53:49.608Z,100531.31
2023-06-02T12:56:16.670Z,100535.75
2023-06-02T12:58:45.606Z,100542.00
2023-06-02T13:01:12.154Z,100529.75
2023-06-02T13:03:39.860Z,100534.72
2023-06-02T13:06:10.010Z,100534.81
2023-06-02T13:08:38.554Z,100532.81
2023-06-02T13:11:06.444Z,100536.09
2023-06-02T13:13:33.689Z,100536.72
2023-06-02T13:16:00.794Z,100545.41
2023-06-02T13:18:27.666Z,100533.56
2023-06-02T13:20:58.228Z,100540.91
2023-06-02T13:23:25.010Z,100540.69
2023-06-02T13:25:52.281Z,100540.84
2023-06-02T13:28:19.986Z,100533.28
2023-06-02T13:30:46.773Z,100524.97
2023-06-02T13:33:13.874Z,100531.59
2023-06-02T13:35:41.423Z,100529.84
2023-06-02T13:38:08.511Z,100521.00
2023-06-02T13:40:35.737Z,100527.66
2023-06-02T13:43:02.329Z,100525.78
2023-06-02T13:45:29.827Z,100532.25
2023-06-02T13:47:56.739Z,100521.25
2023-06-02T13:50:23.873Z,100524.41
2023-06-02T13:52:51.399Z,100512.22
2023-06-02T13:55:18.586Z,100513.84
2023-06-02T13:57:46.107Z,100515.66
2023-06-02T14:00:13.190Z,100511.66
2023-06-02T14:02:40.276Z,100513.72
2023-06-02T14:05:08.791Z,100517.53
2023-06-02T14:07:35.354Z,100522.34
2023-06-02T14:10:02.993Z,100514.97
2023-06-02T14:12:29.604Z,100513.97
2023-06-02T14:14:56.674Z,100513.53
2023-06-02T14:17:24.441Z,100514.66
2023-06-02T14:19:51.062Z,100521.31
2023-06-02T14:22:18.620Z,100519.72
2023-06-02T14:24:45.383Z,100515.75
2023-06-02T14:27:12.654Z,100511.28
2023-06-02T14:29:41.404Z,100510.09
2023-06-02T14:32:08.590Z,100504.31
2023-06-02T14:34:35.362Z,100510.91
2023-06-02T14:37:02.893Z,100511.16
2023-06-02T14:39:29.557Z,100507.94
2023-06-02T14:41:57.946Z,100507.09
2023-06-02T14:44:24.941Z,100508.69
2023-06-02T14:46:52.131Z,100508.41
2023-06-02T14:49:19.943Z,100495.66
2023-06-02T14:51:48.504Z,100504.63
2023-06-02T14:54:16.454Z,100504.00
2023-06-02T14:56:43.050Z,100507.44
2023-06-02T14:59:11.986Z,100504.69
2023-06-02T15:01:39.694Z,100502.63
2023-06-02T15:04:06.881Z,100504.59
2023-06-02T15:06:35.075Z,100511.50
2023-06-02T15:09:01.654Z,100510.91
2023-06-02T15:11:28.560Z,100513.38
2023-06-02T15:13:56.314Z,100508.31
2023-06-02T15:16:23.225Z,100506.41
2023-06-02T15:18:54.749Z,100504.38
2023-06-02T15:21:23.821Z,100507.53
2023-06-02T15:23:50.894Z,100501.81
2023-06-02T15:26:18.517Z,100503.28
2023-06-02T15:28:46.428Z,100504.78
2023-06-02T15:31:13.777Z,100500.06
2023-06-02T15:33:43.044Z,100504.41
2023-06-02T15:36:09.649Z,100500.78
2023-06-02T15:38:37.318Z,100511.41
2023-06-02T15:41:04.453Z,100503.69
2023-06-02T15:43:31.188Z,100499.97
2023-06-02T15:45:59.024Z,100502.88
2023-06-02T15:48:26.267Z,100499.78
2023-06-02T15:50:52.850Z,100503.69
2023-06-02T15:53:19.946Z,100497.97
2023-06-02T15:55:46.578Z,100509.81
2023-06-02T15:58:13.581Z,100507.66
2023-06-02T16:00:41.106Z,100508.97
2023-06-02T16:03:07.747Z,100511.13
2023-06-02T16:06:25.190Z,100512.00
2023-06-02T16:08:52.161Z,100505.72
2023-06-02T16:11:19.188Z,100514.06
2023-06-02T16:13:46.266Z,100504.56
2023-06-02T16:16:12.824Z,100501.00
2023-06-02T16:18:39.984Z,100495.69
2023-06-02T16:21:06.991Z,100500.22
2023-06-02T16:23:34.884Z,100502.94
2023-06-02T16:26:02.649Z,100494.50
2023-06-02T16:28:30.648Z,100500.78
2023-06-02T16:30:57.628Z,100496.22
2023-06-02T16:33:25.167Z,100505.09
2023-06-02T16:35:51.723Z,100499.91
2023-06-02T16:38:19.239Z,100500.97
2023-06-02T16:40:45.918Z,100490.28
2023-06-02T16:43:14.642Z,100495.03
2023-06-02T16:45:42.296Z,100496.88
2023-06-02T16:48:08.928Z,100504.44
2023-06-02T16:50:36.653Z,100507.75
2023-06-02T16:53:04.130Z,100509.16
2023-06-02T16:55:31.318Z,100490.78
2023-06-02T16:58:00.743Z,100501.38
2023-06-02T17:00:28.343Z,100494.91
2023-06-02T17:02:56.366Z,100495.84
2023-06-02T17:05:24.756Z,100500.59
2023-06-02T17:07:54.322Z,100511.69
2023-06-02T17:10:21.615Z,100508.41
2023-06-02T17:12:49.339Z,100501.50
2023-06-02T17:15:16.605Z,100508.19
2023-06-02T17:17:43.750Z,100498.47
2023-06-02T17:20:12.885Z,100498.88
2023-06-02T17:22:39.920Z,100498.22
2023-06-02T17:25:08.584Z,100490.03
2023-06-02T17:27:37.358Z,100490.97
2023-06-02T17:30:07.514Z,100493.47
2023-06-02T17:32:34.718Z,100489.81
2023-06-02T17:35:01.958Z,100501.00
2023-06-02T17:37:31.823Z,100508.75
2023-06-02T17:40:03.039Z,100505.59
2023-06-02T17:42:32.470Z,100507.94
2023-06-02T17:45:00.238Z,100512.28
2023-06-02T17:47:27.950Z,100509.44
2023-06-02T17:49:54.761Z,100508.88
2023-06-02T17:52:24.311Z,100506.38
2023-06-02T17:54:53.098Z,100516.38
2023-06-02T17:57:19.946Z,100507.91
2023-06-02T17:59:47.539Z,100514.25
2023-06-02T18:02:14.156Z,100513.75
2023-06-02T18:04:41.599Z,100511.34
2023-06-02T18:07:09.766Z,100509.16
2023-06-02T18:09:37.907Z,100512.13
2023-06-02T18:12:05.705Z,100515.19
2023-06-02T18:14:32.645Z,100514.63
2023-06-02T18:18:11.361Z,100515.03
2023-06-02T18:20:38.701Z,100519.72
2023-06-02T18:23:05.278Z,100517.13
2023-06-02T18:25:34.016Z,100514.78
2023-06-02T18:28:00.619Z,100514.78
2023-06-02T18:30:27.844Z,100516.16
2023-06-02T18:32:54.589Z,100522.78
2023-06-02T18:35:21.964Z,100523.13
2023-06-02T18:37:48.593Z,100527.84
2023-06-02T18:40:16.021Z,100531.41
2023-06-02T18:42:42.638Z,100526.28
2023-06-02T18:45:09.896Z,100528.22
2023-06-02T18:47:36.536Z,100526.47
2023-06-02T18:50:04.722Z,100529.28
2023-06-02T18:52:35.449Z,100530.31
2023-06-02T18:55:03.318Z,100529.72
2023-06-02T18:57:29.941Z,100528.75
2023-06-02T18:59:58.082Z,100528.09
2023-06-02T19:02:25.408Z,100533.63
2023-06-02T19:04:59.216Z,100535.44
2023-06-02T19:07:29.914Z,100540.94
2023-06-02T19:09:58.703Z,100533.13
2023-06-02T19:12:25.506Z,100535.81
2023-06-02T19:14:52.990Z,100535.00
2023-06-02T19:17:19.717Z,100544.25
2023-06-02T19:19:47.082Z,100527.41
2023-06-02T19:22:15.710Z,100528.44
2023-06-02T19:24:43.218Z,100525.94
2023-06-02T19:27:10.365Z,100534.84
2023-06-02T19:29:37.682Z,100532.63
2023-06-02T19:32:06.561Z,100540.09
2023-06-02T19:34:38.253Z,100534.88
2023-06-02T19:37:05.076Z,100530.75
2023-06-02T19:39:32.412Z,100541.75
2023-06-02T19:41:59.199Z,100548.44
2023-06-02T19:44:26.667Z,100552.25
2023-06-02T19:46:53.317Z,100556.94
2023-06-02T19:49:23.091Z,100552.75
2023-06-02T19:51:49.823Z,100560.22
2023-06-02T19:54:19.676Z,100552.59
2023-06-02T19:56:46.373Z,100566.34
2023-06-02T19:59:13.468Z,100563.31
2023-06-02T20:01:40.508Z,100552.91
2023-06-02T20:04:07.969Z,100564.91
2023-06-02T20:06:34.678Z,100561.75
2023-06-02T20:09:02.017Z,100563.06
2023-06-02T20:11:28.610Z,100566.22
2023-06-02T20:13:56.326Z,100567.59
2023-06-02T20:16:37.352Z,100560.84
2023-06-02T20:19:04.648Z,100565.06
2023-06-02T20:21:31.332Z,100561.97
2023-06-02T20:23:58.538Z,100570.59
2023-06-02T20:26:25.728Z,100572.78
2023-06-02T20:28:52.946Z,100567.81
